Terminal Aerodrome Forecast
Issued by NWS

Home | Current Version | Previous Version | Text Only | Print | Product List | Glossary On
Versions: 1 2 3 4 5 6 7 8 9 10 11 12 13 14 15
000
FTUS45 KGJT 241128
TAFMTJ
TAF
KMTJ 241128Z 2412/2512 11003KT P6SM FEW120
     FM241500 22006KT P6SM VCSH BKN045
     FM241900 30011KT P6SM VCSH BKN045
     FM250100 27007KT P6SM BKN080
     FM250300 20007KT P6SM SCT090
     FM250500 17007KT P6SM SCT130=

USA.gov is the U.S. government's official web portal to all federal, state and local government web resources and services.